sensor_id;sensor_type;location;lat;lon;timestamp;P1;durP1;ratioP1;P2;durP2;ratioP2
1136;SDS011;557;48.466;7.950;2023-03-01T00:01:02;19.53;;;11.70;;
1136;SDS011;557;48.466;7.950;2023-03-01T00:03:50;15.37;;;9.70;;
1136;SDS011;557;48.466;7.950;2023-03-01T00:06:38;16.13;;;10.10;;
1136;SDS011;557;48.466;7.950;2023-03-01T00:09:27;19.80;;;9.27;;
1136;SDS011;557;48.466;7.950;2023-03-01T00:12:14;14.17;;;9.00;;
1136;SDS011;557;48.466;7.950;2023-03-01T00:15:02;15.50;;;10.10;;
1136;SDS011;557;48.466;7.950;2023-03-01T00:17:50;20.07;;;9.30;;
1136;SDS011;557;48.466;7.950;2023-03-01T00:20:37;17.83;;;9.37;;
1136;SDS011;557;48.466;7.950;2023-03-01T00:23:25;14.87;;;8.33;;
1136;SDS011;557;48.466;7.950;2023-03-01T00:26:14;12.30;;;8.30;;
1136;SDS011;557;48.466;7.950;2023-03-01T00:29:02;13.80;;;8.10;;
1136;SDS011;557;48.466;7.950;2023-03-01T00:31:50;19.77;;;9.23;;
1136;SDS011;557;48.466;7.950;2023-03-01T00:34:37;13.80;;;8.27;;
1136;SDS011;557;48.466;7.950;2023-03-01T00:37:25;14.70;;;8.37;;
1136;SDS011;557;48.466;7.950;2023-03-01T00:40:12;12.07;;;8.43;;
1136;SDS011;557;48.466;7.950;2023-03-01T00:43:03;16.23;;;9.03;;
1136;SDS011;557;48.466;7.950;2023-03-01T00:45:51;16.50;;;8.17;;
1136;SDS011;557;48.466;7.950;2023-03-01T00:48:38;14.30;;;7.90;;
1136;SDS011;557;48.466;7.950;2023-03-01T00:51:26;14.30;;;8.87;;
1136;SDS011;557;48.466;7.950;2023-03-01T00:54:14;15.03;;;8.47;;
1136;SDS011;557;48.466;7.950;2023-03-01T00:57:02;15.77;;;9.80;;
1136;SDS011;557;48.466;7.950;2023-03-01T00:59:51;16.10;;;9.43;;
1136;SDS011;557;48.466;7.950;2023-03-01T01:02:38;19.60;;;8.70;;
1136;SDS011;557;48.466;7.950;2023-03-01T01:05:26;13.97;;;9.47;;
1136;SDS011;557;48.466;7.950;2023-03-01T01:08:13;16.53;;;9.60;;
1136;SDS011;557;48.466;7.950;2023-03-01T01:11:00;12.87;;;7.83;;
1136;SDS011;557;48.466;7.950;2023-03-01T01:13:47;14.77;;;7.70;;
1136;SDS011;557;48.466;7.950;2023-03-01T01:16:36;13.20;;;7.50;;
1136;SDS011;557;48.466;7.950;2023-03-01T01:19:24;12.93;;;8.10;;
1136;SDS011;557;48.466;7.950;2023-03-01T01:22:12;20.63;;;9.57;;
1136;SDS011;557;48.466;7.950;2023-03-01T01:24:59;15.03;;;8.33;;
1136;SDS011;557;48.466;7.950;2023-03-01T01:27:47;16.67;;;8.93;;
1136;SDS011;557;48.466;7.950;2023-03-01T01:30:34;15.30;;;9.07;;
1136;SDS011;557;48.466;7.950;2023-03-01T01:33:23;16.53;;;9.20;;
1136;SDS011;557;48.466;7.950;2023-03-01T01:36:10;14.83;;;7.67;;
1136;SDS011;557;48.466;7.950;2023-03-01T01:38:58;13.83;;;7.90;;
1136;SDS011;557;48.466;7.950;2023-03-01T01:41:45;17.90;;;8.90;;
1136;SDS011;557;48.466;7.950;2023-03-01T01:44:33;15.43;;;8.30;;
1136;SDS011;557;48.466;7.950;2023-03-01T01:47:22;16.27;;;8.20;;
1136;SDS011;557;48.466;7.950;2023-03-01T01:50:14;19.07;;;9.00;;
1136;SDS011;557;48.466;7.950;2023-03-01T01:53:05;17.40;;;8.10;;
1136;SDS011;557;48.466;7.950;2023-03-01T01:55:56;15.30;;;7.93;;
1136;SDS011;557;48.466;7.950;2023-03-01T01:58:47;17.33;;;8.87;;
1136;SDS011;557;48.466;7.950;2023-03-01T02:01:35;21.17;;;8.10;;
1136;SDS011;557;48.466;7.950;2023-03-01T02:04:22;18.80;;;9.27;;
1136;SDS011;557;48.466;7.950;2023-03-01T02:07:13;18.47;;;8.87;;
1136;SDS011;557;48.466;7.950;2023-03-01T02:10:03;15.50;;;8.00;;
1136;SDS011;557;48.466;7.950;2023-03-01T02:12:51;18.00;;;7.97;;
1136;SDS011;557;48.466;7.950;2023-03-01T02:15:40;14.33;;;7.97;;
1136;SDS011;557;48.466;7.950;2023-03-01T02:18:29;18.83;;;9.20;;
1136;SDS011;557;48.466;7.950;2023-03-01T02:21:20;16.60;;;9.10;;
1136;SDS011;557;48.466;7.950;2023-03-01T02:24:20;12.60;;;7.63;;
1136;SDS011;557;48.466;7.950;2023-03-01T02:27:18;14.00;;;7.90;;
1136;SDS011;557;48.466;7.950;2023-03-01T02:30:11;16.40;;;8.10;;
1136;SDS011;557;48.466;7.950;2023-03-01T02:32:59;15.30;;;7.00;;
1136;SDS011;557;48.466;7.950;2023-03-01T02:35:48;17.57;;;8.00;;
1136;SDS011;557;48.466;7.950;2023-03-01T02:38:35;14.20;;;8.57;;
1136;SDS011;557;48.466;7.950;2023-03-01T02:41:23;16.17;;;8.20;;
1136;SDS011;557;48.466;7.950;2023-03-01T02:44:13;13.07;;;7.40;;
1136;SDS011;557;48.466;7.950;2023-03-01T02:47:02;17.27;;;8.50;;
1136;SDS011;557;48.466;7.950;2023-03-01T02:49:51;13.00;;;8.10;;
1136;SDS011;557;48.466;7.950;2023-03-01T02:52:41;17.00;;;9.23;;
1136;SDS011;557;48.466;7.950;2023-03-01T02:55:32;14.57;;;7.80;;
1136;SDS011;557;48.466;7.950;2023-03-01T02:58:20;19.03;;;8.60;;
1136;SDS011;557;48.466;7.950;2023-03-01T03:01:07;16.30;;;8.70;;
1136;SDS011;557;48.466;7.950;2023-03-01T03:03:56;17.63;;;9.80;;
1136;SDS011;557;48.466;7.950;2023-03-01T03:06:44;14.03;;;8.07;;
1136;SDS011;557;48.466;7.950;2023-03-01T03:09:32;17.10;;;8.37;;
1136;SDS011;557;48.466;7.950;2023-03-01T03:12:19;14.40;;;8.40;;
1136;SDS011;557;48.466;7.950;2023-03-01T03:15:07;16.83;;;8.00;;
1136;SDS011;557;48.466;7.950;2023-03-01T03:17:58;15.00;;;7.47;;
1136;SDS011;557;48.466;7.950;2023-03-01T03:20:47;15.83;;;8.00;;
1136;SDS011;557;48.466;7.950;2023-03-01T03:23:38;20.70;;;8.73;;
1136;SDS011;557;48.466;7.950;2023-03-01T03:26:25;13.77;;;8.47;;
1136;SDS011;557;48.466;7.950;2023-03-01T03:29:13;15.83;;;7.87;;
1136;SDS011;557;48.466;7.950;2023-03-01T03:32:00;20.10;;;8.80;;
1136;SDS011;557;48.466;7.950;2023-03-01T03:34:48;14.57;;;7.10;;
1136;SDS011;557;48.466;7.950;2023-03-01T03:37:37;14.73;;;7.90;;
1136;SDS011;557;48.466;7.950;2023-03-01T03:40:43;14.43;;;7.43;;
1136;SDS011;557;48.466;7.950;2023-03-01T03:43:32;12.70;;;8.03;;
1136;SDS011;557;48.466;7.950;2023-03-01T03:46:21;15.83;;;8.30;;
1136;SDS011;557;48.466;7.950;2023-03-01T03:49:08;15.37;;;8.47;;
1136;SDS011;557;48.466;7.950;2023-03-01T03:51:55;18.97;;;7.70;;
1136;SDS011;557;48.466;7.950;2023-03-01T03:54:44;15.40;;;7.30;;
1136;SDS011;557;48.466;7.950;2023-03-01T03:57:31;14.53;;;8.30;;
1136;SDS011;557;48.466;7.950;2023-03-01T04:00:19;14.43;;;8.63;;
1136;SDS011;557;48.466;7.950;2023-03-01T04:03:09;17.37;;;8.90;;
1136;SDS011;557;48.466;7.950;2023-03-01T04:05:59;12.90;;;7.50;;
1136;SDS011;557;48.466;7.950;2023-03-01T04:08:47;13.83;;;7.67;;
1136;SDS011;557;48.466;7.950;2023-03-01T04:11:37;16.37;;;8.63;;
1136;SDS011;557;48.466;7.950;2023-03-01T04:14:25;15.10;;;8.43;;
1136;SDS011;557;48.466;7.950;2023-03-01T04:17:12;17.03;;;8.07;;
1136;SDS011;557;48.466;7.950;2023-03-01T04:19:59;18.60;;;7.60;;
1136;SDS011;557;48.466;7.950;2023-03-01T04:22:51;15.47;;;8.23;;
1136;SDS011;557;48.466;7.950;2023-03-01T04:25:45;16.77;;;8.03;;
1136;SDS011;557;48.466;7.950;2023-03-01T04:28:40;14.67;;;7.87;;
1136;SDS011;557;48.466;7.950;2023-03-01T04:31:30;11.07;;;7.10;;
1136;SDS011;557;48.466;7.950;2023-03-01T04:34:17;17.23;;;7.87;;
1136;SDS011;557;48.466;7.950;2023-03-01T04:37:05;11.00;;;6.70;;
1136;SDS011;557;48.466;7.950;2023-03-01T04:39:52;13.43;;;7.37;;
1136;SDS011;557;48.466;7.950;2023-03-01T04:42:40;12.97;;;7.43;;
1136;SDS011;557;48.466;7.950;2023-03-01T04:45:29;17.00;;;7.57;;
1136;SDS011;557;48.466;7.950;2023-03-01T04:48:17;15.60;;;7.87;;
1136;SDS011;557;48.466;7.950;2023-03-01T04:51:05;14.00;;;7.50;;
1136;SDS011;557;48.466;7.950;2023-03-01T04:53:53;17.50;;;8.47;;
1136;SDS011;557;48.466;7.950;2023-03-01T04:56:40;16.00;;;7.80;;
1136;SDS011;557;48.466;7.950;2023-03-01T04:59:28;13.80;;;6.97;;
1136;SDS011;557;48.466;7.950;2023-03-01T05:02:17;20.37;;;8.20;;
1136;SDS011;557;48.466;7.950;2023-03-01T05:05:04;14.03;;;7.50;;
1136;SDS011;557;48.466;7.950;2023-03-01T05:07:53;17.50;;;8.47;;
1136;SDS011;557;48.466;7.950;2023-03-01T05:10:43;19.00;;;10.10;;
1136;SDS011;557;48.466;7.950;2023-03-01T05:13:32;15.50;;;8.77;;
1136;SDS011;557;48.466;7.950;2023-03-01T05:16:19;24.73;;;10.80;;
1136;SDS011;557;48.466;7.950;2023-03-01T05:19:08;17.10;;;9.07;;
1136;SDS011;557;48.466;7.950;2023-03-01T05:22:00;15.17;;;8.40;;
1136;SDS011;557;48.466;7.950;2023-03-01T05:24:49;20.93;;;9.70;;
1136;SDS011;557;48.466;7.950;2023-03-01T05:27:36;16.07;;;8.77;;
1136;SDS011;557;48.466;7.950;2023-03-01T05:30:24;17.70;;;9.30;;
1136;SDS011;557;48.466;7.950;2023-03-01T05:33:12;19.20;;;9.70;;
1136;SDS011;557;48.466;7.950;2023-03-01T05:36:01;16.93;;;8.47;;
1136;SDS011;557;48.466;7.950;2023-03-01T05:38:48;16.70;;;8.97;;
1136;SDS011;557;48.466;7.950;2023-03-01T05:41:36;17.90;;;9.37;;
1136;SDS011;557;48.466;7.950;2023-03-01T05:44:24;19.20;;;8.50;;
1136;SDS011;557;48.466;7.950;2023-03-01T05:47:12;18.23;;;8.13;;
1136;SDS011;557;48.466;7.950;2023-03-01T05:49:59;23.10;;;9.37;;
1136;SDS011;557;48.466;7.950;2023-03-01T05:52:49;17.37;;;9.73;;
1136;SDS011;557;48.466;7.950;2023-03-01T05:55:37;20.37;;;8.70;;
1136;SDS011;557;48.466;7.950;2023-03-01T05:58:25;18.77;;;9.37;;
1136;SDS011;557;48.466;7.950;2023-03-01T06:01:12;19.23;;;8.80;;
1136;SDS011;557;48.466;7.950;2023-03-01T06:04:00;14.70;;;7.53;;
1136;SDS011;557;48.466;7.950;2023-03-01T06:06:47;22.27;;;8.40;;
1136;SDS011;557;48.466;7.950;2023-03-01T06:09:37;18.97;;;8.00;;
1136;SDS011;557;48.466;7.950;2023-03-01T06:12:24;19.80;;;9.20;;
1136;SDS011;557;48.466;7.950;2023-03-01T06:15:12;15.57;;;8.93;;
1136;SDS011;557;48.466;7.950;2023-03-01T06:18:00;15.70;;;8.77;;
1136;SDS011;557;48.466;7.950;2023-03-01T06:20:52;16.87;;;8.80;;
1136;SDS011;557;48.466;7.950;2023-03-01T06:23:40;18.67;;;9.07;;
1136;SDS011;557;48.466;7.950;2023-03-01T06:26:28;15.47;;;8.30;;
1136;SDS011;557;48.466;7.950;2023-03-01T06:29:16;22.60;;;10.00;;
1136;SDS011;557;48.466;7.950;2023-03-01T06:32:03;13.20;;;7.90;;
1136;SDS011;557;48.466;7.950;2023-03-01T06:34:51;17.87;;;8.80;;
1136;SDS011;557;48.466;7.950;2023-03-01T06:37:38;18.63;;;9.17;;
1136;SDS011;557;48.466;7.950;2023-03-01T06:40:26;21.13;;;10.47;;
1136;SDS011;557;48.466;7.950;2023-03-01T06:43:15;18.97;;;9.10;;
1136;SDS011;557;48.466;7.950;2023-03-01T06:46:03;23.90;;;10.17;;
1136;SDS011;557;48.466;7.950;2023-03-01T06:48:52;16.83;;;8.20;;
1136;SDS011;557;48.466;7.950;2023-03-01T06:51:39;18.73;;;9.07;;
1136;SDS011;557;48.466;7.950;2023-03-01T06:54:26;20.43;;;9.80;;
1136;SDS011;557;48.466;7.950;2023-03-01T06:57:14;17.93;;;8.93;;
1136;SDS011;557;48.466;7.950;2023-03-01T07:00:02;22.10;;;10.63;;
1136;SDS011;557;48.466;7.950;2023-03-01T07:02:51;16.97;;;9.87;;
1136;SDS011;557;48.466;7.950;2023-03-01T07:05:38;13.97;;;8.40;;
1136;SDS011;557;48.466;7.950;2023-03-01T07:08:26;16.20;;;8.40;;
1136;SDS011;557;48.466;7.950;2023-03-01T07:11:13;22.33;;;9.30;;
1136;SDS011;557;48.466;7.950;2023-03-01T07:14:01;17.03;;;8.23;;
1136;SDS011;557;48.466;7.950;2023-03-01T07:16:50;19.93;;;10.27;;
1136;SDS011;557;48.466;7.950;2023-03-01T07:19:37;17.93;;;9.00;;
1136;SDS011;557;48.466;7.950;2023-03-01T07:22:25;15.43;;;10.17;;
1136;SDS011;557;48.466;7.950;2023-03-01T07:25:12;21.37;;;9.80;;
1136;SDS011;557;48.466;7.950;2023-03-01T07:27:59;17.63;;;10.40;;
1136;SDS011;557;48.466;7.950;2023-03-01T07:30:47;18.40;;;9.93;;
1136;SDS011;557;48.466;7.950;2023-03-01T07:33:35;18.50;;;8.93;;
1136;SDS011;557;48.466;7.950;2023-03-01T07:36:23;18.37;;;9.10;;
1136;SDS011;557;48.466;7.950;2023-03-01T07:39:11;19.00;;;9.00;;
1136;SDS011;557;48.466;7.950;2023-03-01T07:41:58;20.00;;;9.80;;
1136;SDS011;557;48.466;7.950;2023-03-01T07:44:46;20.97;;;9.20;;
1136;SDS011;557;48.466;7.950;2023-03-01T07:47:33;17.80;;;9.67;;
1136;SDS011;557;48.466;7.950;2023-03-01T07:50:22;28.10;;;9.83;;
1136;SDS011;557;48.466;7.950;2023-03-01T07:53:09;20.73;;;9.27;;
1136;SDS011;557;48.466;7.950;2023-03-01T07:56:00;18.40;;;9.40;;
1136;SDS011;557;48.466;7.950;2023-03-01T07:58:49;19.83;;;10.30;;
1136;SDS011;557;48.466;7.950;2023-03-01T08:01:36;20.13;;;11.00;;
1136;SDS011;557;48.466;7.950;2023-03-01T08:04:24;19.97;;;11.07;;
1136;SDS011;557;48.466;7.950;2023-03-01T08:07:13;18.30;;;9.20;;
1136;SDS011;557;48.466;7.950;2023-03-01T08:10:00;22.90;;;10.73;;
1136;SDS011;557;48.466;7.950;2023-03-01T08:12:50;27.30;;;10.53;;
1136;SDS011;557;48.466;7.950;2023-03-01T08:15:38;21.90;;;10.80;;
1136;SDS011;557;48.466;7.950;2023-03-01T08:18:25;14.73;;;8.50;;
1136;SDS011;557;48.466;7.950;2023-03-01T08:21:13;18.30;;;9.47;;
1136;SDS011;557;48.466;7.950;2023-03-01T08:24:03;15.73;;;8.90;;
1136;SDS011;557;48.466;7.950;2023-03-01T08:26:52;23.40;;;11.00;;
1136;SDS011;557;48.466;7.950;2023-03-01T08:29:39;21.90;;;11.73;;
1136;SDS011;557;48.466;7.950;2023-03-01T08:32:27;27.10;;;11.10;;
1136;SDS011;557;48.466;7.950;2023-03-01T08:35:14;22.07;;;11.30;;
1136;SDS011;557;48.466;7.950;2023-03-01T08:38:04;15.30;;;10.17;;
1136;SDS011;557;48.466;7.950;2023-03-01T08:40:53;23.50;;;11.90;;
1136;SDS011;557;48.466;7.950;2023-03-01T08:43:40;21.17;;;9.83;;
1136;SDS011;557;48.466;7.950;2023-03-01T08:46:28;15.63;;;10.13;;
1136;SDS011;557;48.466;7.950;2023-03-01T08:49:18;21.70;;;11.37;;
1136;SDS011;557;48.466;7.950;2023-03-01T08:52:06;16.40;;;10.67;;
1136;SDS011;557;48.466;7.950;2023-03-01T08:54:54;23.50;;;10.53;;
1136;SDS011;557;48.466;7.950;2023-03-01T08:57:42;20.73;;;11.20;;
1136;SDS011;557;48.466;7.950;2023-03-01T09:00:30;21.50;;;11.03;;
1136;SDS011;557;48.466;7.950;2023-03-01T09:03:20;22.37;;;11.40;;
1136;SDS011;557;48.466;7.950;2023-03-01T09:06:09;19.30;;;10.63;;
1136;SDS011;557;48.466;7.950;2023-03-01T09:08:57;20.20;;;11.70;;
1136;SDS011;557;48.466;7.950;2023-03-01T09:11:44;23.30;;;12.47;;
1136;SDS011;557;48.466;7.950;2023-03-01T09:14:34;22.63;;;12.20;;
1136;SDS011;557;48.466;7.950;2023-03-01T09:17:22;21.23;;;11.13;;
1136;SDS011;557;48.466;7.950;2023-03-01T09:20:10;19.80;;;10.10;;
1136;SDS011;557;48.466;7.950;2023-03-01T09:22:58;22.73;;;11.60;;
1136;SDS011;557;48.466;7.950;2023-03-01T09:25:45;21.30;;;11.83;;
1136;SDS011;557;48.466;7.950;2023-03-01T09:28:32;17.40;;;9.67;;
1136;SDS011;557;48.466;7.950;2023-03-01T09:31:21;19.13;;;11.43;;
1136;SDS011;557;48.466;7.950;2023-03-01T09:34:10;23.23;;;9.90;;
1136;SDS011;557;48.466;7.950;2023-03-01T09:36:59;21.27;;;11.20;;
1136;SDS011;557;48.466;7.950;2023-03-01T09:39:47;17.87;;;10.80;;
1136;SDS011;557;48.466;7.950;2023-03-01T09:42:35;20.60;;;11.70;;
1136;SDS011;557;48.466;7.950;2023-03-01T09:45:33;19.43;;;11.60;;
1136;SDS011;557;48.466;7.950;2023-03-01T09:48:23;20.13;;;11.03;;
1136;SDS011;557;48.466;7.950;2023-03-01T09:51:14;20.73;;;11.67;;
1136;SDS011;557;48.466;7.950;2023-03-01T09:54:06;19.43;;;11.50;;
1136;SDS011;557;48.466;7.950;2023-03-01T09:56:59;19.00;;;11.10;;
1136;SDS011;557;48.466;7.950;2023-03-01T10:03:20;19.73;;;10.50;;
1136;SDS011;557;48.466;7.950;2023-03-01T10:06:14;22.30;;;11.80;;
1136;SDS011;557;48.466;7.950;2023-03-01T10:09:07;17.57;;;11.70;;
1136;SDS011;557;48.466;7.950;2023-03-01T10:11:57;20.20;;;12.33;;
1136;SDS011;557;48.466;7.950;2023-03-01T10:14:49;22.40;;;13.37;;
1136;SDS011;557;48.466;7.950;2023-03-01T10:17:43;17.67;;;12.03;;
1136;SDS011;557;48.466;7.950;2023-03-01T10:20:36;17.87;;;12.07;;
1136;SDS011;557;48.466;7.950;2023-03-01T10:23:32;21.60;;;13.47;;
1136;SDS011;557;48.466;7.950;2023-03-01T10:26:25;23.50;;;13.07;;
1136;SDS011;557;48.466;7.950;2023-03-01T10:29:25;21.30;;;12.93;;
1136;SDS011;557;48.466;7.950;2023-03-01T10:32:17;21.73;;;13.80;;
1136;SDS011;557;48.466;7.950;2023-03-01T10:35:15;20.40;;;13.90;;
1136;SDS011;557;48.466;7.950;2023-03-01T10:38:06;22.67;;;15.23;;
1136;SDS011;557;48.466;7.950;2023-03-01T10:40:55;19.37;;;14.13;;
1136;SDS011;557;48.466;7.950;2023-03-01T10:43:45;20.50;;;14.60;;
1136;SDS011;557;48.466;7.950;2023-03-01T10:46:34;27.70;;;15.13;;
1136;SDS011;557;48.466;7.950;2023-03-01T10:49:23;20.47;;;15.57;;
1136;SDS011;557;48.466;7.950;2023-03-01T10:52:15;22.93;;;15.43;;
1136;SDS011;557;48.466;7.950;2023-03-01T10:55:19;27.90;;;16.13;;
1136;SDS011;557;48.466;7.950;2023-03-01T10:58:17;24.57;;;17.07;;
1136;SDS011;557;48.466;7.950;2023-03-01T11:01:08;22.37;;;16.83;;
1136;SDS011;557;48.466;7.950;2023-03-01T11:04:13;20.90;;;16.33;;
1136;SDS011;557;48.466;7.950;2023-03-01T11:07:02;21.63;;;15.50;;
1136;SDS011;557;48.466;7.950;2023-03-01T11:09:49;21.10;;;17.87;;
1136;SDS011;557;48.466;7.950;2023-03-01T11:12:38;20.10;;;15.70;;
1136;SDS011;557;48.466;7.950;2023-03-01T11:15:26;21.90;;;16.90;;
1136;SDS011;557;48.466;7.950;2023-03-01T11:18:18;26.03;;;17.97;;
1136;SDS011;557;48.466;7.950;2023-03-01T11:21:07;21.57;;;17.63;;
1136;SDS011;557;48.466;7.950;2023-03-01T11:23:55;21.90;;;17.63;;
1136;SDS011;557;48.466;7.950;2023-03-01T11:26:45;23.63;;;17.80;;
1136;SDS011;557;48.466;7.950;2023-03-01T11:29:38;20.90;;;18.70;;
1136;SDS011;557;48.466;7.950;2023-03-01T11:32:29;21.10;;;18.90;;
1136;SDS011;557;48.466;7.950;2023-03-01T11:35:22;20.50;;;17.57;;
1136;SDS011;557;48.466;7.950;2023-03-01T11:38:15;23.57;;;19.70;;
1136;SDS011;557;48.466;7.950;2023-03-01T11:41:08;21.17;;;18.63;;
1136;SDS011;557;48.466;7.950;2023-03-01T11:44:00;21.00;;;18.77;;
1136;SDS011;557;48.466;7.950;2023-03-01T11:46:54;23.80;;;19.10;;
1136;SDS011;557;48.466;7.950;2023-03-01T11:49:58;22.27;;;18.60;;
1136;SDS011;557;48.466;7.950;2023-03-01T11:53:11;24.60;;;19.87;;
1136;SDS011;557;48.466;7.950;2023-03-01T11:56:13;23.70;;;20.00;;
1136;SDS011;557;48.466;7.950;2023-03-01T12:02:46;24.20;;;20.00;;
1136;SDS011;557;48.466;7.950;2023-03-01T12:06:19;23.50;;;19.87;;
1136;SDS011;557;48.466;7.950;2023-03-01T12:12:43;22.30;;;19.30;;
1136;SDS011;557;48.466;7.950;2023-03-01T12:15:47;22.20;;;19.90;;
1136;SDS011;557;48.466;7.950;2023-03-01T12:19:00;22.87;;;20.27;;
1136;SDS011;557;48.466;7.950;2023-03-01T12:22:04;23.97;;;20.03;;
1136;SDS011;557;48.466;7.950;2023-03-01T12:28:16;21.57;;;19.17;;
1136;SDS011;557;48.466;7.950;2023-03-01T12:37:51;27.47;;;22.70;;
1136;SDS011;557;48.466;7.950;2023-03-01T12:40:46;22.70;;;19.93;;
1136;SDS011;557;48.466;7.950;2023-03-01T12:43:50;22.90;;;20.80;;
1136;SDS011;557;48.466;7.950;2023-03-01T12:46:48;23.20;;;20.83;;
1136;SDS011;557;48.466;7.950;2023-03-01T12:49:49;24.73;;;22.13;;
1136;SDS011;557;48.466;7.950;2023-03-01T12:52:43;25.07;;;21.47;;
1136;SDS011;557;48.466;7.950;2023-03-01T12:55:36;23.80;;;21.50;;
1136;SDS011;557;48.466;7.950;2023-03-01T12:58:27;24.57;;;22.07;;
1136;SDS011;557;48.466;7.950;2023-03-01T13:01:21;25.23;;;22.77;;
1136;SDS011;557;48.466;7.950;2023-03-01T13:04:15;25.90;;;22.57;;
1136;SDS011;557;48.466;7.950;2023-03-01T13:07:15;25.00;;;22.50;;
1136;SDS011;557;48.466;7.950;2023-03-01T13:10:15;26.13;;;23.60;;
1136;SDS011;557;48.466;7.950;2023-03-01T13:13:13;25.07;;;22.40;;
1136;SDS011;557;48.466;7.950;2023-03-01T13:16:22;26.77;;;24.03;;
1136;SDS011;557;48.466;7.950;2023-03-01T13:19:30;26.80;;;24.00;;
1136;SDS011;557;48.466;7.950;2023-03-01T13:22:28;25.17;;;22.77;;
1136;SDS011;557;48.466;7.950;2023-03-01T13:25:20;25.53;;;22.97;;
1136;SDS011;557;48.466;7.950;2023-03-01T13:34:47;25.23;;;22.73;;
1136;SDS011;557;48.466;7.950;2023-03-01T13:37:36;25.17;;;22.63;;
1136;SDS011;557;48.466;7.950;2023-03-01T13:43:46;25.57;;;23.00;;
1136;SDS011;557;48.466;7.950;2023-03-01T13:46:34;25.73;;;23.13;;
1136;SDS011;557;48.466;7.950;2023-03-01T13:49:23;25.80;;;23.40;;
1136;SDS011;557;48.466;7.950;2023-03-01T13:55:23;27.80;;;25.03;;
1136;SDS011;557;48.466;7.950;2023-03-01T13:58:20;26.30;;;23.60;;
1136;SDS011;557;48.466;7.950;2023-03-01T14:01:18;26.93;;;24.33;;
1136;SDS011;557;48.466;7.950;2023-03-01T14:04:20;26.17;;;23.77;;
1136;SDS011;557;48.466;7.950;2023-03-01T14:07:09;27.07;;;24.37;;
1136;SDS011;557;48.466;7.950;2023-03-01T14:09:58;26.57;;;24.03;;
1136;SDS011;557;48.466;7.950;2023-03-01T14:12:48;25.63;;;23.10;;
1136;SDS011;557;48.466;7.950;2023-03-01T14:15:42;26.47;;;23.93;;
1136;SDS011;557;48.466;7.950;2023-03-01T14:18:42;26.60;;;24.00;;
1136;SDS011;557;48.466;7.950;2023-03-01T14:21:39;26.63;;;23.93;;
1136;SDS011;557;48.466;7.950;2023-03-01T14:24:26;26.93;;;24.43;;
1136;SDS011;557;48.466;7.950;2023-03-01T14:27:14;25.70;;;23.40;;
1136;SDS011;557;48.466;7.950;2023-03-01T14:30:03;27.30;;;24.37;;
1136;SDS011;557;48.466;7.950;2023-03-01T14:33:00;26.67;;;24.17;;
1136;SDS011;557;48.466;7.950;2023-03-01T14:35:53;26.87;;;24.37;;
1136;SDS011;557;48.466;7.950;2023-03-01T14:38:43;26.67;;;23.83;;
1136;SDS011;557;48.466;7.950;2023-03-01T14:41:33;27.03;;;24.60;;
1136;SDS011;557;48.466;7.950;2023-03-01T14:44:22;27.40;;;24.60;;
1136;SDS011;557;48.466;7.950;2023-03-01T14:47:11;26.70;;;24.20;;
1136;SDS011;557;48.466;7.950;2023-03-01T14:50:03;26.73;;;24.27;;
1136;SDS011;557;48.466;7.950;2023-03-01T14:52:54;27.53;;;24.87;;
1136;SDS011;557;48.466;7.950;2023-03-01T14:55:45;27.00;;;24.40;;
1136;SDS011;557;48.466;7.950;2023-03-01T14:58:34;26.50;;;23.83;;
1136;SDS011;557;48.466;7.950;2023-03-01T15:01:21;25.00;;;22.60;;
1136;SDS011;557;48.466;7.950;2023-03-01T15:04:10;26.20;;;23.70;;
1136;SDS011;557;48.466;7.950;2023-03-01T15:07:01;26.37;;;23.63;;
1136;SDS011;557;48.466;7.950;2023-03-01T15:09:50;26.50;;;23.90;;
1136;SDS011;557;48.466;7.950;2023-03-01T15:12:38;28.23;;;23.10;;
1136;SDS011;557;48.466;7.950;2023-03-01T15:15:35;25.53;;;23.10;;
1136;SDS011;557;48.466;7.950;2023-03-01T15:18:25;24.37;;;22.03;;
1136;SDS011;557;48.466;7.950;2023-03-01T15:21:18;25.03;;;22.37;;
1136;SDS011;557;48.466;7.950;2023-03-01T15:24:16;23.97;;;21.43;;
1136;SDS011;557;48.466;7.950;2023-03-01T15:27:13;25.37;;;22.77;;
1136;SDS011;557;48.466;7.950;2023-03-01T15:30:04;25.73;;;23.10;;
1136;SDS011;557;48.466;7.950;2023-03-01T15:42:41;24.60;;;20.57;;
1136;SDS011;557;48.466;7.950;2023-03-01T15:45:28;25.60;;;21.37;;
1136;SDS011;557;48.466;7.950;2023-03-01T15:48:17;28.23;;;22.27;;
1136;SDS011;557;48.466;7.950;2023-03-01T15:51:09;24.03;;;21.47;;
1136;SDS011;557;48.466;7.950;2023-03-01T15:54:00;23.63;;;21.17;;
1136;SDS011;557;48.466;7.950;2023-03-01T15:56:54;26.00;;;21.30;;
1136;SDS011;557;48.466;7.950;2023-03-01T15:59:41;24.50;;;21.17;;
1136;SDS011;557;48.466;7.950;2023-03-01T16:02:29;23.20;;;20.63;;
1136;SDS011;557;48.466;7.950;2023-03-01T16:05:18;21.67;;;19.50;;
1136;SDS011;557;48.466;7.950;2023-03-01T16:08:08;23.17;;;20.77;;
1136;SDS011;557;48.466;7.950;2023-03-01T16:10:55;24.93;;;21.27;;
1136;SDS011;557;48.466;7.950;2023-03-01T16:13:44;28.27;;;21.83;;
1136;SDS011;557;48.466;7.950;2023-03-01T16:16:32;23.07;;;20.60;;
1136;SDS011;557;48.466;7.950;2023-03-01T16:19:20;21.27;;;19.00;;
1136;SDS011;557;48.466;7.950;2023-03-01T16:22:08;25.63;;;20.60;;
1136;SDS011;557;48.466;7.950;2023-03-01T16:24:57;21.07;;;18.87;;
1136;SDS011;557;48.466;7.950;2023-03-01T16:27:44;22.47;;;20.00;;
1136;SDS011;557;48.466;7.950;2023-03-01T16:30:34;23.00;;;19.80;;
1136;SDS011;557;48.466;7.950;2023-03-01T16:33:22;22.47;;;18.20;;
1136;SDS011;557;48.466;7.950;2023-03-01T16:36:10;22.20;;;19.33;;
1136;SDS011;557;48.466;7.950;2023-03-01T16:38:59;24.47;;;19.27;;
1136;SDS011;557;48.466;7.950;2023-03-01T16:41:48;26.47;;;20.37;;
1136;SDS011;557;48.466;7.950;2023-03-01T16:44:35;24.23;;;20.23;;
1136;SDS011;557;48.466;7.950;2023-03-01T16:47:24;22.13;;;19.20;;
1136;SDS011;557;48.466;7.950;2023-03-01T16:50:11;22.23;;;18.70;;
1136;SDS011;557;48.466;7.950;2023-03-01T16:52:59;21.83;;;19.20;;
1136;SDS011;557;48.466;7.950;2023-03-01T16:55:52;20.43;;;18.10;;
1136;SDS011;557;48.466;7.950;2023-03-01T16:58:40;26.50;;;19.27;;
1136;SDS011;557;48.466;7.950;2023-03-01T17:01:28;24.20;;;19.40;;
1136;SDS011;557;48.466;7.950;2023-03-01T17:04:24;19.87;;;17.43;;
1136;SDS011;557;48.466;7.950;2023-03-01T17:07:11;21.27;;;19.03;;
1136;SDS011;557;48.466;7.950;2023-03-01T17:09:59;23.63;;;18.47;;
1136;SDS011;557;48.466;7.950;2023-03-01T17:12:47;24.23;;;19.53;;
1136;SDS011;557;48.466;7.950;2023-03-01T17:15:37;23.30;;;19.27;;
1136;SDS011;557;48.466;7.950;2023-03-01T17:18:25;22.20;;;18.83;;
1136;SDS011;557;48.466;7.950;2023-03-01T17:21:14;25.57;;;18.60;;
1136;SDS011;557;48.466;7.950;2023-03-01T17:24:02;21.80;;;18.00;;
1136;SDS011;557;48.466;7.950;2023-03-01T17:26:50;23.40;;;19.50;;
1136;SDS011;557;48.466;7.950;2023-03-01T17:29:37;22.00;;;17.67;;
1136;SDS011;557;48.466;7.950;2023-03-01T17:32:25;23.57;;;17.50;;
1136;SDS011;557;48.466;7.950;2023-03-01T17:35:12;22.60;;;17.23;;
1136;SDS011;557;48.466;7.950;2023-03-01T17:38:01;22.47;;;17.20;;
1136;SDS011;557;48.466;7.950;2023-03-01T17:40:49;20.47;;;18.27;;
1136;SDS011;557;48.466;7.950;2023-03-01T17:43:36;26.70;;;19.97;;
1136;SDS011;557;48.466;7.950;2023-03-01T17:46:24;25.60;;;19.73;;
1136;SDS011;557;48.466;7.950;2023-03-01T17:49:14;26.33;;;18.60;;
1136;SDS011;557;48.466;7.950;2023-03-01T17:52:02;23.20;;;19.00;;
1136;SDS011;557;48.466;7.950;2023-03-01T17:54:51;23.00;;;18.43;;
1136;SDS011;557;48.466;7.950;2023-03-01T17:57:39;22.83;;;18.93;;
1136;SDS011;557;48.466;7.950;2023-03-01T18:00:27;21.27;;;17.20;;
1136;SDS011;557;48.466;7.950;2023-03-01T18:03:14;30.87;;;20.70;;
1136;SDS011;557;48.466;7.950;2023-03-01T18:06:02;23.27;;;17.97;;
1136;SDS011;557;48.466;7.950;2023-03-01T18:08:56;25.03;;;17.83;;
1136;SDS011;557;48.466;7.950;2023-03-01T18:11:45;22.00;;;17.00;;